Time,TemperatureF,DewpointF,PressureIn,WindDirection,WindDirectionDegrees,WindSpeedMPH,WindSpeedGustMPH,Humidity,HourlyPrecipIn,Conditions,Clouds,dailyrainin,SoftwareType,DateUTC
2013-09-24 00:12:00,50.9,50.0,30.10,WSW,254,0.0,0.0,95,0.00,,,0.00,weatherlink.com 1.10,2013-09-24 04:12:00,
2013-09-24 00:27:00,51.1,50.0,30.10,WSW,254,0.0,0.0,96,0.00,,,0.00,weatherlink.com 1.10,2013-09-24 04:27:00,
2013-09-24 00:42:00,51.6,51.0,30.10,WSW,254,0.0,0.0,96,0.00,,,0.00,weatherlink.com 1.10,2013-09-24 04:42:00,
2013-09-24 00:57:00,52.2,51.0,30.10,WSW,254,0.0,0.0,96,0.00,,,0.00,weatherlink.com 1.10,2013-09-24 04:57:00,
2013-09-24 01:12:00,52.9,52.0,30.10,WSW,254,0.0,0.0,96,0.00,,,0.00,weatherlink.com 1.10,2013-09-24 05:12:00,
2013-09-24 01:27:00,53.5,52.0,30.10,WSW,251,0.0,1.0,96,0.00,,,0.00,weatherlink.com 1.10,2013-09-24 05:27:00,
2013-09-24 01:42:00,54.1,53.0,30.10,NE,37,2.0,3.0,97,0.00,,,0.00,weatherlink.com 1.10,2013-09-24 05:42:00,
2013-09-24 01:57:00,55.0,54.0,30.10,North,1,0.0,4.0,96,0.00,,,0.00,weatherlink.com 1.10,2013-09-24 05:57:00,
2013-09-24 02:12:00,54.9,54.0,30.11,South,181,0.0,2.0,96,0.00,,,0.00,weatherlink.com 1.10,2013-09-24 06:12:00,
2013-09-24 02:27:00,55.2,54.0,30.11,South,181,0.0,1.0,96,0.00,,,0.00,weatherlink.com 1.10,2013-09-24 06:27:00,
2013-09-24 02:42:00,55.4,54.0,30.11,South,181,0.0,1.0,95,0.00,,,0.00,weatherlink.com 1.10,2013-09-24 06:42:00,
2013-09-24 02:57:00,55.7,54.0,30.11,South,181,0.0,0.0,95,0.00,,,0.00,weatherlink.com 1.10,2013-09-24 06:57:00,
2013-09-24 03:12:00,55.9,55.0,30.10,South,181,0.0,0.0,95,0.00,,,0.00,weatherlink.com 1.10,2013-09-24 07:12:00,
2013-09-24 03:27:00,55.8,54.0,30.10,South,181,0.0,0.0,95,0.00,,,0.00,weatherlink.com 1.10,2013-09-24 07:27:00,
2013-09-24 03:42:00,55.9,55.0,30.10,South,181,0.0,2.0,95,0.00,,,0.00,weatherlink.com 1.10,2013-09-24 07:42:00,
2013-09-24 03:57:00,56.0,55.0,30.11,South,181,0.0,0.0,95,0.00,,,0.00,weatherlink.com 1.10,2013-09-24 07:57:00,
2013-09-24 04:12:00,56.0,55.0,30.10,South,181,0.0,1.0,95,0.00,,,0.00,weatherlink.com 1.10,2013-09-24 08:12:00,
2013-09-24 04:27:00,55.8,54.0,30.11,South,181,0.0,0.0,95,0.00,,,0.00,weatherlink.com 1.10,2013-09-24 08:27:00,
2013-09-24 04:42:00,56.0,55.0,30.11,South,181,0.0,0.0,95,0.00,,,0.00,weatherlink.com 1.10,2013-09-24 08:42:00,
2013-09-24 04:57:00,55.9,55.0,30.11,South,181,0.0,0.0,95,0.00,,,0.00,weatherlink.com 1.10,2013-09-24 08:57:00,
2013-09-24 05:12:00,55.9,54.0,30.11,South,181,0.0,0.0,94,0.00,,,0.00,weatherlink.com 1.10,2013-09-24 09:12:00,
2013-09-24 05:27:00,55.9,54.0,30.11,South,181,0.0,0.0,94,0.00,,,0.00,weatherlink.com 1.10,2013-09-24 09:27:00,
2013-09-24 05:42:00,55.8,54.0,30.11,South,181,0.0,0.0,94,0.00,,,0.00,weatherlink.com 1.10,2013-09-24 09:42:00,
2013-09-24 05:57:00,55.6,54.0,30.11,South,181,0.0,0.0,94,0.00,,,0.00,weatherlink.com 1.10,2013-09-24 09:57:00,
2013-09-24 06:12:00,55.3,54.0,30.11,South,181,0.0,1.0,94,0.00,,,0.00,weatherlink.com 1.10,2013-09-24 10:12:00,
2013-09-24 06:27:00,54.9,53.0,30.11,South,181,0.0,0.0,94,0.00,,,0.00,weatherlink.com 1.10,2013-09-24 10:27:00,
2013-09-24 06:42:00,54.6,53.0,30.11,South,181,0.0,0.0,94,0.00,,,0.00,weatherlink.com 1.10,2013-09-24 10:42:00,
2013-09-24 06:57:00,54.1,53.0,30.12,South,181,0.0,0.0,94,0.00,,,0.00,weatherlink.com 1.10,2013-09-24 10:57:00,
2013-09-24 07:12:00,53.5,52.0,30.12,South,181,0.0,0.0,94,0.00,,,0.00,weatherlink.com 1.10,2013-09-24 11:12:00,
2013-09-24 07:27:00,53.0,52.0,30.12,South,181,0.0,0.0,95,0.00,,,0.00,weatherlink.com 1.10,2013-09-24 11:27:00,
2013-09-24 07:42:00,52.9,52.0,30.12,South,181,0.0,0.0,95,0.00,,,0.00,weatherlink.com 1.10,2013-09-24 11:42:00,
2013-09-24 07:57:00,53.8,53.0,30.13,South,181,0.0,0.0,96,0.00,,,0.00,weatherlink.com 1.10,2013-09-24 11:57:00,
2013-09-24 08:12:00,55.3,54.0,30.13,South,181,0.0,0.0,95,0.00,,,0.00,weatherlink.com 1.10,2013-09-24 12:12:00,
2013-09-24 08:27:00,56.7,55.0,30.13,South,181,0.0,0.0,94,0.00,,,0.00,weatherlink.com 1.10,2013-09-24 12:27:00,
2013-09-24 08:43:00,58.6,55.0,30.13,South,181,0.0,2.0,89,0.00,,,0.00,weatherlink.com 1.10,2013-09-24 12:43:00,
2013-09-24 08:58:00,60.3,56.0,30.12,ENE,72,3.0,4.0,86,0.00,,,0.00,weatherlink.com 1.10,2013-09-24 12:58:00,
2013-09-24 09:13:00,61.3,57.0,30.13,ENE,66,0.0,2.0,84,0.00,,,0.00,weatherlink.com 1.10,2013-09-24 13:13:00,
2013-09-24 09:28:00,63.0,56.0,30.13,East,82,2.0,3.0,79,0.00,,,0.00,weatherlink.com 1.10,2013-09-24 13:28:00,
2013-09-24 09:43:00,63.6,56.0,30.12,SSE,162,0.0,3.0,75,0.00,,,0.00,weatherlink.com 1.10,2013-09-24 13:43:00,
2013-09-24 09:58:00,64.4,55.0,30.12,SSE,151,2.0,6.0,71,0.00,,,0.00,weatherlink.com 1.10,2013-09-24 13:58:00,
2013-09-24 10:13:00,65.4,55.0,30.12,East,101,0.0,5.0,69,0.00,,,0.00,weatherlink.com 1.10,2013-09-24 14:13:00,
2013-09-24 10:28:00,65.2,55.0,30.12,NE,44,4.0,5.0,69,0.00,,,0.00,weatherlink.com 1.10,2013-09-24 14:28:00,
2013-09-24 10:43:00,66.0,55.0,30.11,ENE,58,4.0,5.0,68,0.00,,,0.00,weatherlink.com 1.10,2013-09-24 14:43:00,
2013-09-24 10:58:00,66.9,55.0,30.11,NE,56,3.0,6.0,65,0.00,,,0.00,weatherlink.com 1.10,2013-09-24 14:58:00,
2013-09-24 11:13:00,67.7,55.0,30.10,ESE,111,3.0,7.0,65,0.00,,,0.00,weatherlink.com 1.10,2013-09-24 15:13:00,
2013-09-24 11:28:00,69.0,56.0,30.10,East,82,2.0,4.0,63,0.00,,,0.00,weatherlink.com 1.10,2013-09-24 15:28:00,
2013-09-24 11:43:00,69.1,55.0,30.10,East,84,3.0,9.0,62,0.00,,,0.00,weatherlink.com 1.10,2013-09-24 15:43:00,
2013-09-24 11:58:00,69.3,56.0,30.09,NNE,27,3.0,8.0,62,0.00,,,0.00,weatherlink.com 1.10,2013-09-24 15:58:00,
2013-09-24 12:13:00,70.8,57.0,30.09,SSE,168,3.0,7.0,62,0.00,,,0.00,weatherlink.com 1.10,2013-09-24 16:13:00,
2013-09-24 12:28:00,71.1,56.0,30.08,ENE,60,3.0,6.0,60,0.00,,,0.00,weatherlink.com 1.10,2013-09-24 16:28:00,
2013-09-24 12:43:00,71.4,57.0,30.07,ENE,61,3.0,7.0,61,0.00,,,0.00,weatherlink.com 1.10,2013-09-24 16:43:00,
2013-09-24 12:58:00,71.5,57.0,30.06,ENE,58,1.0,5.0,61,0.00,,,0.00,weatherlink.com 1.10,2013-09-24 16:58:00,
2013-09-24 13:13:00,72.6,58.0,30.05,ENE,76,4.0,7.0,61,0.00,,,0.00,weatherlink.com 1.10,2013-09-24 17:13:00,
2013-09-24 13:28:00,72.9,59.0,30.04,SW,224,1.0,8.0,61,0.00,,,0.00,weatherlink.com 1.10,2013-09-24 17:28:00,
2013-09-24 13:43:00,74.0,59.0,30.03,NNW,336,5.0,5.0,59,0.00,,,0.00,weatherlink.com 1.10,2013-09-24 17:43:00,
2013-09-24 13:59:00,74.0,59.0,30.02,WSW,251,0.0,4.0,59,0.00,,,0.00,weatherlink.com 1.10,2013-09-24 17:59:00,
2013-09-24 14:14:00,75.2,59.0,30.01,West,268,1.0,7.0,58,0.00,,,0.00,weatherlink.com 1.10,2013-09-24 18:14:00,
2013-09-24 14:29:00,75.4,60.0,30.00,South,169,0.0,3.0,59,0.00,,,0.00,weatherlink.com 1.10,2013-09-24 18:29:00,
2013-09-24 14:44:00,75.2,59.0,30.00,SE,140,4.0,6.0,58,0.00,,,0.00,weatherlink.com 1.10,2013-09-24 18:44:00,
2013-09-24 14:59:00,76.0,60.0,29.99,SW,219,0.0,5.0,58,0.00,,,0.00,weatherlink.com 1.10,2013-09-24 18:59:00,
2013-09-24 15:14:00,76.7,60.0,29.99,WSW,255,0.0,6.0,57,0.00,,,0.00,weatherlink.com 1.10,2013-09-24 19:14:00,
2013-09-24 15:29:00,76.2,60.0,29.98,West,259,0.0,4.0,57,0.00,,,0.00,weatherlink.com 1.10,2013-09-24 19:29:00,
2013-09-24 15:44:00,75.7,60.0,29.98,SSE,161,3.0,5.0,58,0.00,,,0.00,weatherlink.com 1.10,2013-09-24 19:44:00,
2013-09-24 15:59:00,75.0,61.0,29.98,WSW,243,0.0,0.0,62,0.00,,,0.00,weatherlink.com 1.10,2013-09-24 19:59:00,
2013-09-24 16:14:00,77.1,60.0,29.98,SSW,196,1.0,5.0,56,0.00,,,0.00,weatherlink.com 1.10,2013-09-24 20:14:00,
2013-09-24 16:29:00,76.4,60.0,29.97,NW,305,1.0,2.0,57,0.00,,,0.00,weatherlink.com 1.10,2013-09-24 20:29:00,
2013-09-24 16:44:00,77.2,61.0,29.97,SSE,148,4.0,5.0,57,0.00,,,0.00,weatherlink.com 1.10,2013-09-24 20:44:00,
2013-09-24 16:59:00,77.1,60.0,29.97,South,176,0.0,5.0,55,0.00,,,0.00,weatherlink.com 1.10,2013-09-24 20:59:00,
2013-09-24 17:29:00,76.0,60.0,29.95,SE,133,0.0,3.0,57,0.00,,,0.00,weatherlink.com 1.10,2013-09-24 21:29:00,
2013-09-24 17:44:00,76.2,60.0,29.95,SSW,195,0.0,2.0,58,0.00,,,0.00,weatherlink.com 1.10,2013-09-24 21:44:00,
2013-09-24 17:59:00,76.4,60.0,29.96,North,349,0.0,1.0,57,0.00,,,0.00,weatherlink.com 1.10,2013-09-24 21:59:00,
2013-09-24 18:14:00,75.7,61.0,29.95,SSE,165,0.0,3.0,61,0.00,,,0.00,weatherlink.com 1.10,2013-09-24 22:14:00,
2013-09-24 18:29:00,73.4,62.0,29.95,SSE,165,0.0,0.0,68,0.00,,,0.00,weatherlink.com 1.10,2013-09-24 22:29:00,
2013-09-24 18:44:00,71.2,63.0,29.96,SSE,165,0.0,0.0,74,0.00,,,0.00,weatherlink.com 1.10,2013-09-24 22:44:00,
2013-09-24 18:59:00,68.8,62.0,29.96,SSE,165,0.0,0.0,78,0.00,,,0.00,weatherlink.com 1.10,2013-09-24 22:59:00,
2013-09-24 19:15:00,67.0,61.0,29.96,SSE,165,0.0,0.0,82,0.00,,,0.00,weatherlink.com 1.10,2013-09-24 23:15:00,
2013-09-24 19:29:00,65.6,61.0,29.96,SSE,165,0.0,0.0,85,0.00,,,0.00,weatherlink.com 1.10,2013-09-24 23:29:00,
2013-09-24 19:44:00,64.1,61.0,29.95,SSE,165,0.0,0.0,88,0.00,,,0.00,weatherlink.com 1.10,2013-09-24 23:44:00,
2013-09-24 19:59:00,62.9,60.0,29.96,SSE,165,0.0,0.0,90,0.00,,,0.00,weatherlink.com 1.10,2013-09-24 23:59:00,
2013-09-24 20:14:00,62.0,59.0,29.97,SSE,165,0.0,0.0,91,0.00,,,0.00,weatherlink.com 1.10,2013-09-25 00:14:00,
2013-09-24 20:29:00,61.2,59.0,29.97,SSE,165,0.0,0.0,92,0.00,,,0.00,weatherlink.com 1.10,2013-09-25 00:29:00,
2013-09-24 20:44:00,60.3,58.0,29.97,SSE,165,0.0,0.0,93,0.00,,,0.00,weatherlink.com 1.10,2013-09-25 00:44:00,
2013-09-24 20:59:00,59.9,58.0,29.97,SSE,165,0.0,0.0,93,0.00,,,0.00,weatherlink.com 1.10,2013-09-25 00:59:00,
2013-09-24 21:14:00,59.1,57.0,29.97,SSE,165,0.0,0.0,93,0.00,,,0.00,weatherlink.com 1.10,2013-09-25 01:14:00,
2013-09-24 21:29:00,58.6,57.0,29.97,SSE,165,0.0,0.0,94,0.00,,,0.00,weatherlink.com 1.10,2013-09-25 01:29:00,
2013-09-24 21:44:00,58.4,57.0,29.97,SSE,165,0.0,0.0,95,0.00,,,0.00,weatherlink.com 1.10,2013-09-25 01:44:00,
2013-09-24 21:59:00,57.8,56.0,29.97,SSE,165,0.0,0.0,94,0.00,,,0.00,weatherlink.com 1.10,2013-09-25 01:59:00,
2013-09-24 22:14:00,57.1,55.0,29.97,SSE,165,0.0,0.0,94,0.00,,,0.00,weatherlink.com 1.10,2013-09-25 02:14:00,
2013-09-24 22:29:00,56.8,55.0,29.97,SSE,165,0.0,0.0,95,0.00,,,0.00,weatherlink.com 1.10,2013-09-25 02:29:00,
2013-09-24 22:44:00,56.4,55.0,29.97,SSE,165,0.0,0.0,95,0.00,,,0.00,weatherlink.com 1.10,2013-09-25 02:44:00,
2013-09-24 22:59:00,56.0,55.0,29.98,SSE,165,0.0,0.0,95,0.00,,,0.00,weatherlink.com 1.10,2013-09-25 02:59:00,
2013-09-24 23:14:00,55.6,54.0,29.98,SSE,165,0.0,0.0,95,0.00,,,0.00,weatherlink.com 1.10,2013-09-25 03:14:00,
2013-09-24 23:29:00,55.3,54.0,29.98,SSE,165,0.0,0.0,95,0.00,,,0.00,weatherlink.com 1.10,2013-09-25 03:29:00,
2013-09-24 23:44:00,54.9,54.0,29.98,SSE,165,0.0,0.0,95,0.00,,,0.00,weatherlink.com 1.10,2013-09-25 03:44:00,
2013-09-24 23:59:00,54.4,53.0,29.98,SSE,165,0.0,0.0,95,0.00,,,0.00,weatherlink.com 1.10,2013-09-25 03:59:00,